Accueil
METAR-TAF:

METAR-TAF

Aéroports :

Aigen im Ennstal, Autriche

latitude: 47-32N, longitude: 014-08E, altitude: 638 m

METAR: absent

Heure: 13:25 (11:25 UTC)

Prévision

Le bulletin a été fait il y a 3 heures et 10 minutes, à 08:15 UTC
Prévision valable du 14 à 09 UTC au 14 à 18 UTC
Vent 4 kt de direction variable
Visibilité 10 km ou plus
Quelques nuages à une hauteur de 3500 ft
Nuages épars à une hauteur de 6000 ft
Temporairement
du 14 à 09 UTC au 14 à 18 UTC
Vent 7 kt de ouest/sud-ouest
Quelques nuages à une hauteur de 3000 ft
Nuages fragmentés à une hauteur de 5000 ft

TAF: LOXA 140815Z 1409/1418 VRB04KT 9999 FEW035 SCT060 TEMPO 1409/1418 24007KT FEW030 BKN050

Observations et prévisions météorologiques de plus de 4000 aéroports (messages METAR et TAF).

Les stations disponibles sont représentées par des disques jaunes et rouges sur la carte.

Passer la souris dessus pour voir le nom de la station.

Cliquer dessus pour voir les observations et prévisions météorologiques.

Pour changer de carte: cliquez sur les boutons verts avec une croix noire pour zoomer, sur le bouton vert avec un tiret pour effectuer un zoom arrière, ou sur les flèches vertes pour les cartes adjacentes.


METAR-TAF: